createdAt,value
2022-09-09T00:02:11.620Z,3.30
2022-09-09T00:12:17.306Z,3.90
2022-09-09T00:22:27.601Z,3.10
2022-09-09T00:32:35.245Z,2.90
2022-09-09T00:42:47.251Z,4.80
2022-09-09T00:52:59.145Z,6.00
2022-09-09T01:03:20.626Z,9.70
2022-09-09T01:13:32.103Z,7.80
2022-09-09T01:23:47.530Z,8.30
2022-09-09T01:33:54.720Z,9.70
2022-09-09T01:44:02.190Z,8.30
2022-09-09T01:54:10.244Z,7.80
2022-09-09T02:04:25.494Z,8.60
2022-09-09T02:14:38.791Z,10.00
2022-09-09T02:24:46.185Z,11.60
2022-09-09T02:34:58.751Z,12.20
2022-09-09T02:45:04.481Z,10.40
2022-09-09T02:55:13.651Z,10.00
2022-09-09T03:05:19.444Z,12.50
2022-09-09T03:15:30.577Z,19.30
2022-09-09T03:25:37.246Z,22.90
2022-09-09T03:35:50.109Z,23.60
2022-09-09T03:45:57.521Z,27.70
2022-09-09T03:56:03.362Z,26.20
2022-09-09T04:06:13.611Z,29.20
2022-09-09T04:16:21.335Z,23.30
2022-09-09T04:26:29.053Z,25.10
2022-09-09T04:36:33.597Z,23.40
2022-09-09T04:46:42.352Z,20.50
2022-09-09T04:56:49.623Z,19.30
2022-09-09T05:06:56.728Z,21.40
2022-09-09T05:17:03.758Z,27.50
2022-09-09T05:27:13.375Z,19.90
2022-09-09T05:37:20.024Z,20.00
2022-09-09T05:47:27.506Z,17.40
2022-09-09T05:57:35.328Z,17.00
2022-09-09T06:07:43.878Z,15.80
2022-09-09T06:17:55.996Z,14.30
2022-09-09T06:28:03.468Z,10.50
2022-09-09T06:38:11.009Z,9.20
2022-09-09T06:48:18.046Z,6.30
2022-09-09T06:58:25.040Z,5.40
2022-09-09T07:08:31.608Z,5.20
2022-09-09T07:18:39.384Z,4.20
2022-09-09T07:28:46.913Z,3.60
2022-09-09T07:38:56.840Z,2.50
2022-09-09T07:49:04.811Z,2.90
2022-09-09T07:59:13.189Z,2.50
2022-09-09T08:09:21.063Z,2.60
2022-09-09T08:19:30.440Z,2.90
2022-09-09T08:29:39.051Z,3.20
2022-09-09T08:39:46.127Z,4.30
2022-09-09T08:59:58.784Z,3.40
2022-09-09T09:10:09.103Z,1.70
2022-09-09T09:20:25.471Z,5.10
2022-09-09T09:30:31.215Z,2.40
2022-09-09T09:40:38.707Z,1.90
2022-09-09T09:50:49.016Z,0.90
2022-09-09T10:00:57.116Z,3.70
2022-09-09T10:11:08.302Z,0.90
2022-09-09T10:21:22.976Z,1.60
2022-09-09T10:31:36.379Z,1.10
2022-09-09T10:41:52.249Z,1.20
2022-09-09T10:51:57.999Z,2.00
2022-09-09T11:02:13.837Z,5.30
2022-09-09T11:12:23.239Z,2.40
2022-09-09T11:22:31.624Z,1.40
2022-09-09T11:33:09.975Z,2.30
2022-09-09T11:43:17.532Z,1.50
2022-09-09T11:53:24.033Z,2.00
2022-09-09T12:03:41.817Z,2.30
2022-09-09T12:13:54.951Z,2.70
2022-09-09T12:24:09.585Z,2.40
2022-09-09T12:34:17.430Z,2.10
2022-09-09T12:44:25.202Z,0.80
2022-09-09T12:54:32.411Z,1.40
2022-09-09T13:04:39.633Z,2.40
2022-09-09T13:25:04.726Z,3.00
2022-09-09T13:35:24.421Z,5.00
2022-09-09T13:45:31.932Z,1.60
2022-09-09T13:55:39.678Z,4.30
2022-09-09T14:05:48.146Z,2.40
2022-09-09T14:25:59.295Z,1.40
2022-09-09T14:36:04.674Z,3.60
2022-09-09T14:46:13.712Z,1.70
2022-09-09T14:56:22.461Z,2.00
2022-09-09T15:06:32.858Z,1.30
2022-09-09T15:16:41.594Z,1.70
2022-09-09T15:26:48.681Z,5.30
2022-09-09T15:36:55.402Z,1.10
2022-09-09T15:47:02.381Z,4.10
2022-09-09T15:57:10.525Z,7.10
2022-09-09T16:07:17.495Z,2.70
2022-09-09T16:17:24.016Z,7.40
2022-09-09T16:27:31.650Z,5.90
2022-09-09T16:37:37.461Z,6.20
2022-09-09T16:47:45.345Z,7.30
2022-09-09T16:57:52.862Z,12.40
2022-09-09T17:07:58.680Z,6.60
2022-09-09T17:18:06.347Z,5.90
2022-09-09T17:28:13.820Z,9.30
2022-09-09T17:38:20.105Z,7.50
2022-09-09T17:48:28.530Z,9.30
2022-09-09T18:08:41.631Z,11.90
2022-09-09T18:18:49.826Z,7.50
2022-09-09T18:28:59.617Z,14.30
2022-09-09T18:39:08.948Z,14.10
2022-09-09T18:49:17.084Z,10.50
2022-09-09T18:59:25.765Z,13.20
2022-09-09T19:09:34.324Z,16.20
2022-09-09T19:19:41.254Z,18.40
2022-09-09T19:29:48.552Z,19.10
2022-09-09T19:39:55.944Z,17.80
2022-09-09T19:50:05.926Z,25.20
2022-09-09T20:00:15.054Z,32.20
2022-09-09T20:10:23.667Z,28.40
2022-09-09T20:20:30.670Z,31.20
2022-09-09T20:30:37.365Z,33.50
2022-09-09T20:40:44.453Z,33.00
2022-09-09T20:50:51.602Z,30.50
2022-09-09T21:01:00.566Z,28.90
2022-09-09T21:11:07.179Z,29.40
2022-09-09T21:21:15.392Z,28.30
2022-09-09T21:31:27.469Z,23.50
2022-09-09T21:41:36.709Z,21.60
2022-09-09T21:51:43.946Z,19.80
2022-09-09T22:01:51.526Z,23.30
2022-09-09T22:11:58.274Z,21.40
2022-09-09T22:22:05.262Z,20.90
2022-09-09T22:32:12.857Z,20.20
2022-09-09T22:42:20.143Z,14.90
2022-09-09T22:52:27.520Z,14.50
2022-09-09T23:02:38.707Z,13.20
2022-09-09T23:12:49.489Z,16.60
2022-09-09T23:33:01.859Z,17.80
2022-09-09T23:43:08.918Z,19.70
2022-09-09T23:53:16.136Z,25.00
